sensor_id;sensor_type;location;lat;lon;timestamp;pressure;altitude;pressure_sealevel;temperature;humidity
55550;BME280;41397;49.972;18.944;2023-08-31T00:01:59;101110.88;;;20.18;74.79
55550;BME280;41397;49.972;18.944;2023-08-31T00:05:01;101107.42;;;20.16;74.96
55550;BME280;41397;49.972;18.944;2023-08-31T00:08:02;101112.31;;;20.14;75.07
55550;BME280;41397;49.972;18.944;2023-08-31T00:11:03;101108.47;;;20.15;75.25
55550;BME280;41397;49.972;18.944;2023-08-31T00:14:06;101109.70;;;20.12;75.24
55550;BME280;41397;49.972;18.944;2023-08-31T00:17:07;101113.86;;;20.16;75.16
55550;BME280;41397;49.972;18.944;2023-08-31T00:20:08;101117.50;;;20.17;75.29
55550;BME280;41397;49.972;18.944;2023-08-31T00:23:13;101110.03;;;20.17;75.35
55550;BME280;41397;49.972;18.944;2023-08-31T00:26:14;101107.42;;;20.16;75.45
55550;BME280;41397;49.972;18.944;2023-08-31T00:29:16;101105.34;;;20.18;75.45
55550;BME280;41397;49.972;18.944;2023-08-31T00:32:17;101115.59;;;20.17;75.50
55550;BME280;41397;49.972;18.944;2023-08-31T00:35:23;101121.13;;;20.17;75.36
55550;BME280;41397;49.972;18.944;2023-08-31T00:38:25;101113.66;;;20.18;75.51
55550;BME280;41397;49.972;18.944;2023-08-31T00:41:26;101106.20;;;20.18;75.37
55550;BME280;41397;49.972;18.944;2023-08-31T00:44:27;101105.16;;;20.20;75.15
55550;BME280;41397;49.972;18.944;2023-08-31T00:47:29;101105.86;;;20.22;74.99
55550;BME280;41397;49.972;18.944;2023-08-31T00:50:31;101106.02;;;20.20;74.93
55550;BME280;41397;49.972;18.944;2023-08-31T00:53:32;101117.01;;;20.13;75.09
55550;BME280;41397;49.972;18.944;2023-08-31T00:56:35;101109.73;;;20.04;75.33
55550;BME280;41397;49.972;18.944;2023-08-31T00:59:37;101101.08;;;19.99;75.33
55550;BME280;41397;49.972;18.944;2023-08-31T01:06:02;101108.91;;;19.95;75.64
55550;BME280;41397;49.972;18.944;2023-08-31T01:15:52;101120.01;;;19.95;75.86
55550;BME280;41397;49.972;18.944;2023-08-31T01:18:54;101121.57;;;19.98;75.79
55550;BME280;41397;49.972;18.944;2023-08-31T01:22:00;101123.48;;;19.98;75.75
55550;BME280;41397;49.972;18.944;2023-08-31T01:25:02;101131.82;;;19.98;75.90
55550;BME280;41397;49.972;18.944;2023-08-31T01:28:07;101129.20;;;19.96;75.85
55550;BME280;41397;49.972;18.944;2023-08-31T01:31:13;101129.06;;;19.89;76.17
55550;BME280;41397;49.972;18.944;2023-08-31T01:34:18;101125.73;;;19.94;75.83
55550;BME280;41397;49.972;18.944;2023-08-31T01:37:27;101123.84;;;19.94;75.75
55550;BME280;41397;49.972;18.944;2023-08-31T01:43:47;101126.41;;;19.96;75.71
55550;BME280;41397;49.972;18.944;2023-08-31T01:46:53;101122.95;;;19.94;75.69
55550;BME280;41397;49.972;18.944;2023-08-31T01:49:58;101137.88;;;19.93;75.62
55550;BME280;41397;49.972;18.944;2023-08-31T01:53:00;101130.25;;;19.95;75.63
55550;BME280;41397;49.972;18.944;2023-08-31T01:56:02;101141.52;;;19.93;75.56
55550;BME280;41397;49.972;18.944;2023-08-31T01:59:03;101128.50;;;19.94;75.82
55550;BME280;41397;49.972;18.944;2023-08-31T02:02:05;101143.08;;;19.96;76.01
55550;BME280;41397;49.972;18.944;2023-08-31T02:05:07;101144.83;;;19.97;76.38
55550;BME280;41397;49.972;18.944;2023-08-31T02:08:08;101142.23;;;19.95;76.34
55550;BME280;41397;49.972;18.944;2023-08-31T02:11:10;101147.07;;;19.93;76.43
55550;BME280;41397;49.972;18.944;2023-08-31T02:14:13;101149.85;;;19.93;76.63
55550;BME280;41397;49.972;18.944;2023-08-31T02:17:15;101150.91;;;19.92;76.89
55550;BME280;41397;49.972;18.944;2023-08-31T02:20:16;101160.79;;;19.95;76.73
55550;BME280;41397;49.972;18.944;2023-08-31T02:23:17;101156.09;;;19.95;76.62
55550;BME280;41397;49.972;18.944;2023-08-31T02:26:21;101155.24;;;19.95;76.61
55550;BME280;41397;49.972;18.944;2023-08-31T02:29:23;101151.41;;;19.96;76.82
55550;BME280;41397;49.972;18.944;2023-08-31T02:32:24;101146.91;;;19.95;76.82
55550;BME280;41397;49.972;18.944;2023-08-31T02:35:25;101145.52;;;19.91;76.75
55550;BME280;41397;49.972;18.944;2023-08-31T02:38:29;101152.47;;;19.95;76.73
55550;BME280;41397;49.972;18.944;2023-08-31T02:41:30;101145.52;;;19.91;76.80
55550;BME280;41397;49.972;18.944;2023-08-31T02:44:32;101153.32;;;19.95;76.91
55550;BME280;41397;49.972;18.944;2023-08-31T02:47:33;101153.32;;;19.95;76.76
55550;BME280;41397;49.972;18.944;2023-08-31T02:50:38;101156.45;;;19.92;77.00
55550;BME280;41397;49.972;18.944;2023-08-31T02:53:39;101152.27;;;19.96;76.85
55550;BME280;41397;49.972;18.944;2023-08-31T02:56:40;101158.71;;;19.97;76.58
55550;BME280;41397;49.972;18.944;2023-08-31T02:59:41;101156.09;;;19.95;76.72
55550;BME280;41397;49.972;18.944;2023-08-31T03:02:45;101161.81;;;19.94;76.81
55550;BME280;41397;49.972;18.944;2023-08-31T03:05:46;101147.93;;;19.94;76.79
55550;BME280;41397;49.972;18.944;2023-08-31T03:08:47;101146.05;;;19.94;76.53
55550;BME280;41397;49.972;18.944;2023-08-31T03:11:48;101147.07;;;19.93;76.68
55550;BME280;41397;49.972;18.944;2023-08-31T03:14:52;101158.38;;;19.92;76.76
55550;BME280;41397;49.972;18.944;2023-08-31T03:17:54;101157.31;;;19.93;76.59
55550;BME280;41397;49.972;18.944;2023-08-31T03:20:56;101160.09;;;19.93;76.78
55550;BME280;41397;49.972;18.944;2023-08-31T03:23:57;101160.95;;;19.93;76.75
55550;BME280;41397;49.972;18.944;2023-08-31T03:27:00;101164.78;;;19.92;76.78
55550;BME280;41397;49.972;18.944;2023-08-31T03:30:02;101169.27;;;19.93;76.81
55550;BME280;41397;49.972;18.944;2023-08-31T03:33:04;101176.74;;;19.93;76.80
55550;BME280;41397;49.972;18.944;2023-08-31T03:36:06;101175.88;;;19.92;76.75
55550;BME280;41397;49.972;18.944;2023-08-31T03:39:08;101176.91;;;19.91;76.86
55550;BME280;41397;49.972;18.944;2023-08-31T03:42:10;101183.36;;;19.92;76.98
55550;BME280;41397;49.972;18.944;2023-08-31T03:45:11;101181.60;;;19.91;77.08
55550;BME280;41397;49.972;18.944;2023-08-31T03:48:12;101191.14;;;19.88;77.36
55550;BME280;41397;49.972;18.944;2023-08-31T03:51:16;101196.70;;;19.88;77.48
55550;BME280;41397;49.972;18.944;2023-08-31T03:54:17;101186.65;;;19.87;77.36
55550;BME280;41397;49.972;18.944;2023-08-31T03:57:18;101195.48;;;19.91;77.17
55550;BME280;41397;49.972;18.944;2023-08-31T04:00:20;101191.84;;;19.90;76.96
55550;BME280;41397;49.972;18.944;2023-08-31T04:03:25;101192.90;;;19.89;76.85
55550;BME280;41397;49.972;18.944;2023-08-31T04:06:26;101192.54;;;19.92;76.74
55550;BME280;41397;49.972;18.944;2023-08-31T04:09:29;101195.13;;;19.94;76.63
55550;BME280;41397;49.972;18.944;2023-08-31T04:12:30;101193.23;;;19.94;76.63
55550;BME280;41397;49.972;18.944;2023-08-31T04:15:32;101198.09;;;19.92;76.61
55550;BME280;41397;49.972;18.944;2023-08-31T04:18:35;101202.59;;;19.93;76.56
55550;BME280;41397;49.972;18.944;2023-08-31T04:21:36;101201.72;;;19.93;76.53
55550;BME280;41397;49.972;18.944;2023-08-31T04:24:39;101197.90;;;19.94;76.48
55550;BME280;41397;49.972;18.944;2023-08-31T04:27:40;101206.41;;;19.92;76.61
55550;BME280;41397;49.972;18.944;2023-08-31T04:30:41;101206.91;;;19.96;76.42
55550;BME280;41397;49.972;18.944;2023-08-31T04:33:42;101202.43;;;19.95;76.67
55550;BME280;41397;49.972;18.944;2023-08-31T04:36:43;101207.28;;;19.93;76.59
55550;BME280;41397;49.972;18.944;2023-08-31T04:39:47;101211.26;;;19.99;76.24
55550;BME280;41397;49.972;18.944;2023-08-31T04:42:48;101189.38;;;20.04;76.12
55550;BME280;41397;49.972;18.944;2023-08-31T04:48:36;101202.72;;;20.16;75.98
55550;BME280;41397;49.972;18.944;2023-08-31T04:51:37;101191.95;;;20.22;75.81
55550;BME280;41397;49.972;18.944;2023-08-31T04:54:42;101198.50;;;20.29;75.41
55550;BME280;41397;49.972;18.944;2023-08-31T04:57:44;101193.20;;;20.58;75.28
55550;BME280;41397;49.972;18.944;2023-08-31T05:00:45;101201.27;;;20.76;74.46
55550;BME280;41397;49.972;18.944;2023-08-31T05:03:48;101195.67;;;20.84;74.02
55550;BME280;41397;49.972;18.944;2023-08-31T05:06:49;101206.16;;;20.97;73.55
55550;BME280;41397;49.972;18.944;2023-08-31T05:09:52;101208.19;;;21.12;73.43
55550;BME280;41397;49.972;18.944;2023-08-31T05:12:53;101208.30;;;21.64;72.60
55550;BME280;41397;49.972;18.944;2023-08-31T05:15:54;101206.96;;;22.28;71.86
55550;BME280;41397;49.972;18.944;2023-08-31T05:18:55;101209.47;;;22.89;69.33
55550;BME280;41397;49.972;18.944;2023-08-31T05:21:59;101216.52;;;23.21;68.00
55550;BME280;41397;49.972;18.944;2023-08-31T05:25:00;101223.18;;;23.20;67.59
55550;BME280;41397;49.972;18.944;2023-08-31T05:28:02;101224.96;;;23.06;67.26
55550;BME280;41397;49.972;18.944;2023-08-31T05:31:04;101236.04;;;22.85;67.51
55550;BME280;41397;49.972;18.944;2023-08-31T05:34:09;101239.04;;;22.68;67.89
55550;BME280;41397;49.972;18.944;2023-08-31T05:37:11;101238.86;;;22.55;68.43
55550;BME280;41397;49.972;18.944;2023-08-31T05:40:12;101250.88;;;22.41;68.25
55550;BME280;41397;49.972;18.944;2023-08-31T05:43:15;101251.55;;;22.28;68.83
55550;BME280;41397;49.972;18.944;2023-08-31T05:46:16;101257.56;;;22.16;69.16
55550;BME280;41397;49.972;18.944;2023-08-31T05:49:17;101246.50;;;22.08;68.97
55550;BME280;41397;49.972;18.944;2023-08-31T05:52:19;101248.69;;;21.98;69.24
55550;BME280;41397;49.972;18.944;2023-08-31T05:55:20;101249.45;;;21.92;69.82
55550;BME280;41397;49.972;18.944;2023-08-31T05:58:23;101251.45;;;21.83;69.46
55550;BME280;41397;49.972;18.944;2023-08-31T06:01:24;101252.21;;;21.77;69.88
55550;BME280;41397;49.972;18.944;2023-08-31T06:04:25;101247.57;;;21.69;69.70
55550;BME280;41397;49.972;18.944;2023-08-31T06:07:27;101256.48;;;21.65;70.03
55550;BME280;41397;49.972;18.944;2023-08-31T06:10:30;101258.95;;;21.60;70.03
55550;BME280;41397;49.972;18.944;2023-08-31T06:13:32;101258.47;;;21.56;70.20
55550;BME280;41397;49.972;18.944;2023-08-31T06:16:33;101260.08;;;21.50;70.33
55550;BME280;41397;49.972;18.944;2023-08-31T06:19:34;101267.74;;;21.48;70.75
55550;BME280;41397;49.972;18.944;2023-08-31T06:22:38;101268.13;;;21.45;70.74
55550;BME280;41397;49.972;18.944;2023-08-31T06:25:40;101266.20;;;21.46;70.64
55550;BME280;41397;49.972;18.944;2023-08-31T06:28:41;101264.64;;;21.43;70.78
55550;BME280;41397;49.972;18.944;2023-08-31T06:31:42;101268.66;;;21.41;70.34
55550;BME280;41397;49.972;18.944;2023-08-31T06:34:46;101277.01;;;21.41;70.79
55550;BME280;41397;49.972;18.944;2023-08-31T06:37:47;101273.20;;;21.42;70.64
55550;BME280;41397;49.972;18.944;2023-08-31T06:40:51;101274.23;;;21.41;70.67
55550;BME280;41397;49.972;18.944;2023-08-31T06:43:59;101278.94;;;21.40;70.61
55550;BME280;41397;49.972;18.944;2023-08-31T06:47:00;101279.99;;;21.39;70.59
55550;BME280;41397;49.972;18.944;2023-08-31T06:50:02;101275.98;;;21.42;70.47
55550;BME280;41397;49.972;18.944;2023-08-31T06:53:04;101275.77;;;21.43;70.46
55550;BME280;41397;49.972;18.944;2023-08-31T06:56:05;101276.26;;;21.47;70.33
55550;BME280;41397;49.972;18.944;2023-08-31T06:59:06;101284.44;;;21.48;70.20
55550;BME280;41397;49.972;18.944;2023-08-31T07:02:07;101286.98;;;21.58;70.16
55550;BME280;41397;49.972;18.944;2023-08-31T07:05:10;101286.23;;;21.64;69.73
55550;BME280;41397;49.972;18.944;2023-08-31T07:08:12;101291.91;;;21.71;69.59
55550;BME280;41397;49.972;18.944;2023-08-31T07:11:14;101294.14;;;21.76;69.13
55550;BME280;41397;49.972;18.944;2023-08-31T07:14:17;101299.54;;;21.77;68.95
55550;BME280;41397;49.972;18.944;2023-08-31T07:17:18;101296.16;;;21.82;68.58
55550;BME280;41397;49.972;18.944;2023-08-31T07:20:23;101296.69;;;21.85;68.57
55550;BME280;41397;49.972;18.944;2023-08-31T07:23:24;101297.17;;;21.89;68.67
55550;BME280;41397;49.972;18.944;2023-08-31T07:26:25;101296.31;;;21.88;68.21
55550;BME280;41397;49.972;18.944;2023-08-31T07:29:26;101299.95;;;21.89;67.79
55550;BME280;41397;49.972;18.944;2023-08-31T07:32:28;101300.63;;;21.91;68.44
55550;BME280;41397;49.972;18.944;2023-08-31T07:35:30;101308.61;;;21.94;68.51
55550;BME280;41397;49.972;18.944;2023-08-31T07:38:31;101297.20;;;22.04;68.73
55550;BME280;41397;49.972;18.944;2023-08-31T07:41:33;101304.06;;;22.16;67.97
55550;BME280;41397;49.972;18.944;2023-08-31T07:44:34;101301.99;;;22.33;67.88
55550;BME280;41397;49.972;18.944;2023-08-31T07:47:35;101316.91;;;22.55;66.71
55550;BME280;41397;49.972;18.944;2023-08-31T07:50:39;101310.08;;;22.87;66.36
55550;BME280;41397;49.972;18.944;2023-08-31T07:53:40;101314.86;;;23.23;66.98
55550;BME280;41397;49.972;18.944;2023-08-31T07:56:42;101313.37;;;23.42;65.01
55550;BME280;41397;49.972;18.944;2023-08-31T07:59:43;101321.02;;;23.55;63.72
55550;BME280;41397;49.972;18.944;2023-08-31T08:02:45;101328.21;;;23.64;63.55
55550;BME280;41397;49.972;18.944;2023-08-31T08:05:47;101326.94;;;23.66;62.31
55550;BME280;41397;49.972;18.944;2023-08-31T08:08:48;101331.58;;;23.74;63.51
55550;BME280;41397;49.972;18.944;2023-08-31T08:11:49;101330.31;;;23.77;62.83
55550;BME280;41397;49.972;18.944;2023-08-31T08:14:51;101338.97;;;23.82;62.83
55550;BME280;41397;49.972;18.944;2023-08-31T08:17:52;101334.87;;;23.84;62.37
55550;BME280;41397;49.972;18.944;2023-08-31T08:20:55;101334.29;;;23.89;62.58
55550;BME280;41397;49.972;18.944;2023-08-31T08:23:56;101345.05;;;23.92;62.03
55550;BME280;41397;49.972;18.944;2023-08-31T08:26:57;101342.74;;;23.96;62.34
55550;BME280;41397;49.972;18.944;2023-08-31T08:29:59;101346.18;;;23.98;61.32
55550;BME280;41397;49.972;18.944;2023-08-31T08:33:00;101353.78;;;24.04;61.75
55550;BME280;41397;49.972;18.944;2023-08-31T08:36:04;101354.51;;;24.12;61.17
55550;BME280;41397;49.972;18.944;2023-08-31T08:39:05;101352.23;;;24.23;60.45
55550;BME280;41397;49.972;18.944;2023-08-31T08:42:07;101351.43;;;24.29;59.98
55550;BME280;41397;49.972;18.944;2023-08-31T08:45:15;101351.94;;;24.39;58.28
55550;BME280;41397;49.972;18.944;2023-08-31T08:48:17;101342.62;;;24.53;59.71
55550;BME280;41397;49.972;18.944;2023-08-31T08:51:20;101344.01;;;24.71;59.33
55550;BME280;41397;49.972;18.944;2023-08-31T08:54:22;101348.21;;;24.88;59.00
55550;BME280;41397;49.972;18.944;2023-08-31T08:57:24;101357.30;;;24.97;58.38
55550;BME280;41397;49.972;18.944;2023-08-31T09:00:26;101354.34;;;25.12;57.55
55550;BME280;41397;49.972;18.944;2023-08-31T09:03:28;101349.33;;;25.35;58.79
55550;BME280;41397;49.972;18.944;2023-08-31T09:06:30;101351.72;;;25.45;57.68
55550;BME280;41397;49.972;18.944;2023-08-31T09:09:31;101358.41;;;25.51;56.54
55550;BME280;41397;49.972;18.944;2023-08-31T09:12:36;101358.41;;;25.51;56.86
55550;BME280;41397;49.972;18.944;2023-08-31T09:15:44;101364.67;;;25.53;57.05
55550;BME280;41397;49.972;18.944;2023-08-31T09:18:46;101365.09;;;25.50;56.11
55550;BME280;41397;49.972;18.944;2023-08-31T09:21:48;101367.70;;;25.51;56.08
55550;BME280;41397;49.972;18.944;2023-08-31T09:24:50;101367.47;;;25.53;56.49
55550;BME280;41397;49.972;18.944;2023-08-31T09:27:51;101373.93;;;25.53;56.52
55550;BME280;41397;49.972;18.944;2023-08-31T09:34:05;101371.13;;;25.53;56.18
55550;BME280;41397;49.972;18.944;2023-08-31T09:37:08;101363.82;;;25.59;55.01
55550;BME280;41397;49.972;18.944;2023-08-31T09:40:14;101371.17;;;25.66;55.86
55550;BME280;41397;49.972;18.944;2023-08-31T09:46:26;101371.48;;;25.85;56.19
55550;BME280;41397;49.972;18.944;2023-08-31T09:49:28;101385.72;;;25.97;56.16
55550;BME280;41397;49.972;18.944;2023-08-31T09:52:30;101379.05;;;25.98;55.04
55550;BME280;41397;49.972;18.944;2023-08-31T09:55:32;101390.70;;;26.01;55.11
55550;BME280;41397;49.972;18.944;2023-08-31T09:58:34;101388.55;;;26.03;55.54
55550;BME280;41397;49.972;18.944;2023-08-31T10:01:36;101380.56;;;26.07;54.99
55550;BME280;41397;49.972;18.944;2023-08-31T10:04:38;101387.91;;;26.15;55.25
55550;BME280;41397;49.972;18.944;2023-08-31T10:07:39;101388.76;;;26.22;54.85
55550;BME280;41397;49.972;18.944;2023-08-31T10:10:41;101391.56;;;26.22;53.96
55550;BME280;41397;49.972;18.944;2023-08-31T10:13:44;101393.54;;;26.28;54.62
55550;BME280;41397;49.972;18.944;2023-08-31T10:16:46;101388.77;;;26.28;54.28
55550;BME280;41397;49.972;18.944;2023-08-31T10:19:56;101390.50;;;26.29;54.66
55550;BME280;41397;49.972;18.944;2023-08-31T10:23:02;101386.20;;;26.33;52.92
55550;BME280;41397;49.972;18.944;2023-08-31T10:26:05;101389.00;;;26.33;51.82
55550;BME280;41397;49.972;18.944;2023-08-31T10:29:25;101385.77;;;26.37;52.54
55550;BME280;41397;49.972;18.944;2023-08-31T10:32:20;101384.47;;;26.39;53.36
55550;BME280;41397;49.972;18.944;2023-08-31T10:35:40;101393.54;;;26.41;54.22
55550;BME280;41397;49.972;18.944;2023-08-31T10:38:34;101389.00;;;26.33;52.06
55550;BME280;41397;49.972;18.944;2023-08-31T10:41:35;101396.55;;;26.33;52.39
55550;BME280;41397;49.972;18.944;2023-08-31T10:44:37;101393.95;;;26.31;51.18
55550;BME280;41397;49.972;18.944;2023-08-31T10:47:40;101396.34;;;26.28;51.40
55550;BME280;41397;49.972;18.944;2023-08-31T10:50:42;101395.68;;;26.26;52.86
55550;BME280;41397;49.972;18.944;2023-08-31T10:53:46;101396.97;;;26.23;53.20
55550;BME280;41397;49.972;18.944;2023-08-31T10:56:55;101394.18;;;26.17;53.55
55550;BME280;41397;49.972;18.944;2023-08-31T10:59:57;101388.77;;;26.15;52.74
55550;BME280;41397;49.972;18.944;2023-08-31T11:03:03;101389.83;;;26.07;52.62
55550;BME280;41397;49.972;18.944;2023-08-31T11:06:10;101389.20;;;26.12;53.46
55550;BME280;41397;49.972;18.944;2023-08-31T11:09:18;101386.60;;;26.04;52.80
55550;BME280;41397;49.972;18.944;2023-08-31T11:12:22;101400.39;;;25.99;52.57
55550;BME280;41397;49.972;18.944;2023-08-31T11:15:26;101391.55;;;25.95;52.06
55550;BME280;41397;49.972;18.944;2023-08-31T11:18:31;101391.52;;;25.88;51.89
55550;BME280;41397;49.972;18.944;2023-08-31T11:21:33;101386.37;;;25.92;52.22
55550;BME280;41397;49.972;18.944;2023-08-31T11:24:35;101388.95;;;25.94;51.49
55550;BME280;41397;49.972;18.944;2023-08-31T11:27:37;101389.80;;;25.94;51.95
55550;BME280;41397;49.972;18.944;2023-08-31T11:30:40;101380.77;;;25.92;51.59
55550;BME280;41397;49.972;18.944;2023-08-31T11:33:54;101390.47;;;25.89;52.39
55550;BME280;41397;49.972;18.944;2023-08-31T11:36:57;101384.63;;;25.91;51.27
55550;BME280;41397;49.972;18.944;2023-08-31T11:39:59;101375.56;;;25.89;51.48
55550;BME280;41397;49.972;18.944;2023-08-31T11:43:05;101377.31;;;25.90;51.53
55550;BME280;41397;49.972;18.944;2023-08-31T11:46:10;101386.57;;;25.90;51.85
55550;BME280;41397;49.972;18.944;2023-08-31T11:49:12;101382.48;;;25.93;51.00
55550;BME280;41397;49.972;18.944;2023-08-31T11:52:14;101371.93;;;25.95;50.04
55550;BME280;41397;49.972;18.944;2023-08-31T11:55:17;101369.13;;;25.95;49.61
55550;BME280;41397;49.972;18.944;2023-08-31T11:58:26;101369.13;;;25.95;50.77
55550;BME280;41397;49.972;18.944;2023-08-31T12:01:29;101369.13;;;25.95;50.36
55550;BME280;41397;49.972;18.944;2023-08-31T12:04:31;101358.78;;;25.96;50.25
55550;BME280;41397;49.972;18.944;2023-08-31T12:07:40;101361.34;;;25.97;50.09
55550;BME280;41397;49.972;18.944;2023-08-31T12:10:43;101364.81;;;25.93;50.34
55550;BME280;41397;49.972;18.944;2023-08-31T12:13:44;101362.02;;;25.93;50.53
55550;BME280;41397;49.972;18.944;2023-08-31T12:16:47;101358.54;;;25.97;51.08
55550;BME280;41397;49.972;18.944;2023-08-31T12:19:49;101361.34;;;25.90;50.25
55550;BME280;41397;49.972;18.944;2023-08-31T12:22:51;101361.35;;;25.84;50.48
55550;BME280;41397;49.972;18.944;2023-08-31T12:25:53;101361.56;;;25.89;50.30
55550;BME280;41397;49.972;18.944;2023-08-31T12:28:56;101358.75;;;25.89;49.77
55550;BME280;41397;49.972;18.944;2023-08-31T12:31:57;101349.29;;;25.90;48.86
55550;BME280;41397;49.972;18.944;2023-08-31T12:35:00;101355.55;;;25.92;49.30
55550;BME280;41397;49.972;18.944;2023-08-31T12:38:02;101346.05;;;25.93;48.60
55550;BME280;41397;49.972;18.944;2023-08-31T12:41:05;101352.52;;;25.94;49.34
55550;BME280;41397;49.972;18.944;2023-08-31T12:44:07;101353.60;;;25.93;49.07
55550;BME280;41397;49.972;18.944;2023-08-31T12:47:09;101374.28;;;25.91;48.91
55550;BME280;41397;49.972;18.944;2023-08-31T12:50:11;101368.48;;;25.86;49.10
55550;BME280;41397;49.972;18.944;2023-08-31T12:53:13;101377.02;;;25.72;47.89
55550;BME280;41397;49.972;18.944;2023-08-31T12:56:15;101382.37;;;25.60;48.30
55550;BME280;41397;49.972;18.944;2023-08-31T12:59:25;101393.95;;;25.50;49.07
55550;BME280;41397;49.972;18.944;2023-08-31T13:02:26;101403.82;;;25.39;49.71
55550;BME280;41397;49.972;18.944;2023-08-31T13:05:29;101413.25;;;25.32;50.21
55550;BME280;41397;49.972;18.944;2023-08-31T13:08:31;101430.64;;;25.20;52.11
55550;BME280;41397;49.972;18.944;2023-08-31T13:11:33;101445.66;;;24.85;53.85
55550;BME280;41397;49.972;18.944;2023-08-31T13:14:43;101489.14;;;24.59;57.91
55550;BME280;41397;49.972;18.944;2023-08-31T13:17:46;101500.09;;;24.18;61.20
55550;BME280;41397;49.972;18.944;2023-08-31T13:20:54;101525.66;;;24.00;60.42
55550;BME280;41397;49.972;18.944;2023-08-31T13:23:56;101531.98;;;23.72;60.57
55550;BME280;41397;49.972;18.944;2023-08-31T13:26:58;101528.96;;;23.59;61.36
55550;BME280;41397;49.972;18.944;2023-08-31T13:29:59;101514.52;;;23.40;61.02
55550;BME280;41397;49.972;18.944;2023-08-31T13:33:02;101509.42;;;23.29;61.99
55550;BME280;41397;49.972;18.944;2023-08-31T13:36:06;101498.34;;;23.21;62.05
55550;BME280;41397;49.972;18.944;2023-08-31T13:39:07;101491.61;;;23.15;64.02
55550;BME280;41397;49.972;18.944;2023-08-31T13:42:09;101485.56;;;23.12;63.92
55550;BME280;41397;49.972;18.944;2023-08-31T13:45:11;101496.72;;;23.12;64.12
55550;BME280;41397;49.972;18.944;2023-08-31T13:48:13;101486.89;;;23.16;64.73
55550;BME280;41397;49.972;18.944;2023-08-31T13:51:16;101483.71;;;23.19;66.10
55550;BME280;41397;49.972;18.944;2023-08-31T13:54:39;101487.87;;;23.23;66.32
55550;BME280;41397;49.972;18.944;2023-08-31T13:57:41;101476.31;;;23.26;66.15
55550;BME280;41397;49.972;18.944;2023-08-31T14:00:46;101477.17;;;23.26;65.98
55550;BME280;41397;49.972;18.944;2023-08-31T14:03:48;101489.02;;;23.29;66.03
55550;BME280;41397;49.972;18.944;2023-08-31T14:06:50;101487.95;;;23.30;66.31
55550;BME280;41397;49.972;18.944;2023-08-31T14:10:00;101488.46;;;23.33;67.27
55550;BME280;41397;49.972;18.944;2023-08-31T14:13:01;101493.18;;;23.33;66.86
55550;BME280;41397;49.972;18.944;2023-08-31T14:16:02;101492.58;;;23.37;67.09
55550;BME280;41397;49.972;18.944;2023-08-31T14:19:04;101499.52;;;23.41;67.06
55550;BME280;41397;49.972;18.944;2023-08-31T14:22:06;101500.77;;;23.39;67.97
55550;BME280;41397;49.972;18.944;2023-08-31T14:25:12;101500.09;;;23.37;67.23
55550;BME280;41397;49.972;18.944;2023-08-31T14:28:20;101491.64;;;23.30;66.61
55550;BME280;41397;49.972;18.944;2023-08-31T14:31:22;101503.84;;;23.29;66.12
55550;BME280;41397;49.972;18.944;2023-08-31T14:34:23;101490.95;;;23.28;67.00
55550;BME280;41397;49.972;18.944;2023-08-31T14:37:26;101497.23;;;23.30;66.69
55550;BME280;41397;49.972;18.944;2023-08-31T14:40:27;101494.04;;;23.33;67.27
55550;BME280;41397;49.972;18.944;2023-08-31T14:43:29;101504.81;;;23.36;66.66
55550;BME280;41397;49.972;18.944;2023-08-31T14:46:30;101505.85;;;23.35;66.66
55550;BME280;41397;49.972;18.944;2023-08-31T14:49:31;101507.13;;;23.33;64.98
55550;BME280;41397;49.972;18.944;2023-08-31T14:52:35;101506.63;;;23.29;64.88
55550;BME280;41397;49.972;18.944;2023-08-31T14:55:37;101501.73;;;23.31;64.92
55550;BME280;41397;49.972;18.944;2023-08-31T14:58:38;101504.52;;;23.31;65.03
55550;BME280;41397;49.972;18.944;2023-08-31T15:01:39;101510.10;;;23.31;64.76
55550;BME280;41397;49.972;18.944;2023-08-31T15:04:43;101509.92;;;23.33;64.84
55550;BME280;41397;49.972;18.944;2023-08-31T15:07:46;101508.38;;;23.30;64.67
55550;BME280;41397;49.972;18.944;2023-08-31T15:10:47;101515.00;;;23.29;64.13
55550;BME280;41397;49.972;18.944;2023-08-31T15:13:48;101513.45;;;23.26;63.98
55550;BME280;41397;49.972;18.944;2023-08-31T15:16:51;101514.52;;;23.25;63.59
55550;BME280;41397;49.972;18.944;2023-08-31T15:19:52;101521.75;;;23.20;63.80
55550;BME280;41397;49.972;18.944;2023-08-31T15:22:54;101520.97;;;23.11;63.61
55550;BME280;41397;49.972;18.944;2023-08-31T15:26:00;101512.39;;;23.13;63.96
55550;BME280;41397;49.972;18.944;2023-08-31T15:29:02;101523.38;;;23.14;63.79
55550;BME280;41397;49.972;18.944;2023-08-31T15:32:05;101530.20;;;23.12;63.48
55550;BME280;41397;49.972;18.944;2023-08-31T15:35:08;101521.14;;;23.10;63.30
55550;BME280;41397;49.972;18.944;2023-08-31T15:38:10;101530.20;;;23.12;63.25
55550;BME280;41397;49.972;18.944;2023-08-31T15:41:13;101532.99;;;23.12;63.28
55550;BME280;41397;49.972;18.944;2023-08-31T15:44:15;101524.63;;;23.12;63.25
55550;BME280;41397;49.972;18.944;2023-08-31T15:47:16;101530.20;;;23.12;62.82
55550;BME280;41397;49.972;18.944;2023-08-31T15:50:17;101527.11;;;23.07;62.51
55550;BME280;41397;49.972;18.944;2023-08-31T15:53:19;101526.24;;;23.06;62.36
55550;BME280;41397;49.972;18.944;2023-08-31T15:56:20;101521.05;;;23.03;62.35
55550;BME280;41397;49.972;18.944;2023-08-31T15:59:21;101530.45;;;23.02;62.39
55550;BME280;41397;49.972;18.944;2023-08-31T16:02:23;101531.52;;;23.01;62.36
55550;BME280;41397;49.972;18.944;2023-08-31T16:05:24;101530.15;;;22.97;62.54